Time;durP1;ratioP1;P1;durP2;ratioP2;P2;SDS_P1;SDS_P2;PMS_P1;PMS_P2;Temp;Humidity;BMP_temperature;BMP_pressure;BME280_temperature;BME280_humidity;BME280_pressure;Samples;Min_cycle;Max_cycle;Signal;HPM_P1;HPM_P2
2023/08/26 00:01:37;;;;;;;2.42;1.30;;;;;;;25.62;45.20;100965.88;5086928;28;20040;-66
2023/08/26 00:04:03;;;;;;;4.40;1.00;;;;;;;26.08;44.35;100957.22;5070702;28;20040;-65
2023/08/26 00:06:28;;;;;;;4.25;1.70;;;;;;;24.48;47.10;100959.34;5069192;28;20031;-66
2023/08/26 00:08:53;;;;;;;1.42;1.00;;;;;;;24.37;48.15;100972.53;5068453;28;20030;-65
2023/08/26 00:11:19;;;;;;;1.88;1.13;;;;;;;24.99;46.72;100965.75;5088311;28;20020;-67
2023/08/26 00:13:44;;;;;;;6.65;1.80;;;;;;;23.96;49.92;100957.41;5069166;28;20157;-66
2023/08/26 00:16:12;;;;;;;2.83;1.50;;;;;;;25.36;46.69;100968.56;5073558;28;20036;-68
2023/08/26 00:18:38;;;;;;;2.78;1.50;;;;;;;24.08;49.08;100969.97;5089729;28;20024;-67
2023/08/26 00:21:03;;;;;;;5.40;1.88;;;;;;;24.26;48.88;100957.22;5088737;28;20055;-69
2023/08/26 00:23:31;;;;;;;3.13;2.10;;;;;;;24.59;48.53;100955.94;5087259;28;20024;-66
2023/08/26 00:25:56;;;;;;;2.65;1.75;;;;;;;24.14;49.97;100961.56;5085130;28;20387;-67
2023/08/26 00:28:22;;;;;;;3.72;2.03;;;;;;;24.42;48.78;100956.22;5067868;28;20036;-67
2023/08/26 00:30:57;;;;;;;2.78;1.42;;;;;;;24.29;48.50;100956.16;5069113;28;20031;-67
2023/08/26 00:33:22;;;;;;;2.83;1.40;;;;;;;24.78;48.24;100954.72;5068976;28;20056;-67
2023/08/26 00:35:48;;;;;;;1.75;1.52;;;;;;;23.95;50.24;100951.22;5077930;28;20107;-67
2023/08/26 00:38:13;;;;;;;3.60;1.42;;;;;;;23.38;50.90;100952.97;5068149;28;20024;-66
2023/08/26 00:40:38;;;;;;;5.07;1.27;;;;;;;23.59;50.82;100954.38;5068876;28;20384;-66
2023/08/26 00:43:11;;;;;;;5.68;1.58;;;;;;;24.11;49.72;100953.75;5067904;28;20039;-68
2023/08/26 00:45:48;;;;;;;5.95;1.65;;;;;;;24.40;48.39;100948.31;5079262;28;20150;-66
2023/08/26 00:48:15;;;;;;;3.75;1.08;;;;;;;25.28;45.92;100946.81;5088869;28;20447;-66
2023/08/26 00:50:43;;;;;;;6.70;1.33;;;;;;;22.49;52.46;100950.28;5089227;28;20111;-67
2023/08/26 00:53:11;;;;;;;5.25;1.40;;;;;;;24.42;48.82;100942.88;5088859;28;20024;-66
2023/08/26 00:55:39;;;;;;;2.72;1.20;;;;;;;23.26;51.01;100948.41;5089204;28;20028;-67
2023/08/26 00:58:05;;;;;;;4.85;1.15;;;;;;;23.48;50.12;100950.59;5087322;28;20031;-67
2023/08/26 01:00:33;;;;;;;3.35;1.08;;;;;;;24.04;49.19;100944.41;5051479;28;20423;-66
2023/08/26 01:02:59;;;;;;;4.38;0.90;;;;;;;22.53;52.39;100936.72;5042885;28;20012;-67
2023/08/26 01:05:24;;;;;;;4.40;1.02;;;;;;;23.13;50.63;100942.94;5044288;28;20114;-67
2023/08/26 01:07:50;;;;;;;6.18;1.40;;;;;;;24.08;48.95;100940.59;5032087;28;20037;-67
2023/08/26 01:10:16;;;;;;;3.10;0.98;;;;;;;24.09;48.90;100942.31;5048628;28;20036;-68
2023/08/26 01:12:56;;;;;;;6.00;1.90;;;;;;;23.19;51.15;100942.59;5031559;28;20025;-67
2023/08/26 01:15:25;;;;;;;4.22;1.20;;;;;;;22.53;52.28;100949.16;5063188;28;20477;-67
2023/08/26 01:17:51;;;;;;;1.58;0.98;;;;;;;23.09;50.58;100941.41;5039945;28;20388;-67
2023/08/26 01:20:17;;;;;;;5.13;1.60;;;;;;;23.62;49.54;100940.88;5069173;28;20081;-67
2023/08/26 01:22:45;;;;;;;2.85;1.10;;;;;;;23.28;50.38;100937.66;5049543;28;20419;-65
2023/08/26 01:25:11;;;;;;;6.07;1.58;;;;;;;23.80;48.85;100937.03;5048422;28;20435;-64
2023/08/26 01:27:37;;;;;;;6.53;1.00;;;;;;;22.83;51.44;100935.84;5069634;28;20024;-65
2023/08/26 01:30:05;;;;;;;4.93;1.20;;;;;;;23.68;49.53;100938.66;5050774;28;20081;-65
2023/08/26 01:32:42;;;;;;;2.50;1.35;;;;;;;22.60;52.12;100925.69;5045900;28;20441;-65
2023/08/26 01:35:12;;;;;;;1.83;1.08;;;;;;;22.06;53.66;100934.94;5064208;28;20055;-65
2023/08/26 01:37:40;;;;;;;3.05;1.13;;;;;;;22.57;52.54;100944.53;5031636;28;20041;-65
2023/08/26 01:40:08;;;;;;;6.03;1.50;;;;;;;22.45;52.70;100941.63;5059544;28;20028;-66
2023/08/26 01:42:37;;;;;;;3.90;1.35;;;;;;;22.78;52.12;100943.25;5046311;28;20487;-64
2023/08/26 01:45:03;;;;;;;5.70;1.40;;;;;;;22.12;53.74;100950.59;5060227;28;20364;-65
2023/08/26 01:47:29;;;;;;;5.07;1.63;;;;;;;23.21;51.18;100935.34;5068446;28;20365;-65
2023/08/26 01:49:54;;;;;;;6.43;1.52;;;;;;;22.82;52.18;100939.47;5068689;28;20031;-65
2023/08/26 01:52:20;;;;;;;7.22;1.58;;;;;;;23.39;50.59;100932.50;5066188;28;20025;-65
2023/08/26 01:54:49;;;;;;;8.45;2.22;;;;;;;22.87;51.87;100932.06;5031750;28;20468;-65
2023/08/26 01:57:17;;;;;;;3.70;1.92;;;;;;;22.63;52.13;100933.53;5030927;28;20091;-65
2023/08/26 01:59:43;;;;;;;4.72;2.53;;;;;;;22.96;51.58;100935.13;5061935;28;20052;-65
2023/08/26 02:02:08;;;;;;;4.78;1.63;;;;;;;23.00;51.05;100931.31;5087639;28;20099;-65
2023/08/26 02:04:34;;;;;;;2.92;1.60;;;;;;;22.78;51.91;100932.59;5067597;28;20464;-65
2023/08/26 02:06:59;;;;;;;4.38;2.08;;;;;;;22.45;53.60;100935.44;5067207;28;20025;-64
2023/08/26 02:09:25;;;;;;;3.88;1.55;;;;;;;22.87;52.56;100926.72;5068221;28;20041;-65
2023/08/26 02:11:50;;;;;;;3.92;2.00;;;;;;;23.11;52.39;100928.84;5089367;28;20031;-65
2023/08/26 02:14:15;;;;;;;3.22;1.95;;;;;;;23.62;50.07;100932.88;5084507;28;20092;-65
2023/08/26 02:16:41;;;;;;;3.67;1.90;;;;;;;23.15;52.51;100929.53;5089408;28;20028;-65
2023/08/26 02:19:06;;;;;;;4.18;1.73;;;;;;;22.38;53.76;100929.63;5087952;28;20024;-64
2023/08/26 02:21:32;;;;;;;2.50;1.45;;;;;;;23.03;52.32;100931.13;5088090;28;20028;-65
2023/08/26 02:23:57;;;;;;;3.13;1.70;;;;;;;23.08;52.27;100933.50;5077403;28;20039;-65
2023/08/26 02:26:22;;;;;;;7.35;2.10;;;;;;;22.24;53.89;100932.19;5072481;28;20028;-65
2023/08/26 02:28:48;;;;;;;2.45;1.50;;;;;;;21.47;56.13;100939.97;5087837;28;20423;-65
2023/08/26 02:31:13;;;;;;;3.88;1.30;;;;;;;22.43;54.44;100938.19;5075761;28;20035;-65
2023/08/26 02:33:39;;;;;;;6.07;1.92;;;;;;;21.92;55.73;100937.56;5092948;28;20032;-64
2023/08/26 02:36:04;;;;;;;8.68;1.83;;;;;;;23.75;50.35;100939.13;5090464;28;20532;-65
2023/08/26 02:38:31;;;;;;;7.13;1.80;;;;;;;22.94;52.69;100935.19;5081094;28;20555;-65
2023/08/26 02:40:57;;;;;;;3.90;1.30;;;;;;;22.41;53.03;100933.91;5083841;28;20096;-64
2023/08/26 02:43:22;;;;;;;3.85;1.40;;;;;;;21.40;56.07;100926.13;5088872;28;20118;-66
2023/08/26 02:45:55;;;;;;;3.25;1.67;;;;;;;21.86;55.67;100928.13;5091563;28;20032;-65
2023/08/26 02:48:25;;;;;;;2.25;1.33;;;;;;;22.57;53.51;100928.53;5089745;28;20040;-65
2023/08/26 02:51:01;;;;;;;8.77;1.60;;;;;;;22.50;54.96;100926.25;5090105;28;20055;-65
2023/08/26 02:53:28;;;;;;;2.42;1.30;;;;;;;22.17;54.67;100919.25;5091279;28;20036;-65
2023/08/26 02:55:54;;;;;;;6.90;1.85;;;;;;;21.38;56.61;100935.13;5090575;28;20097;-66
2023/08/26 02:58:20;;;;;;;2.75;1.30;;;;;;;22.28;55.73;100918.59;5085560;28;20036;-64
2023/08/26 03:00:47;;;;;;;10.02;3.08;;;;;;;21.81;55.31;100931.00;5071343;28;20031;-65
2023/08/26 03:03:13;;;;;;;1.80;1.38;;;;;;;21.71;56.00;100924.50;5069467;28;20052;-65
2023/08/26 03:05:38;;;;;;;1.63;1.30;;;;;;;20.84;59.63;100923.75;5077042;28;20110;-66
2023/08/26 03:08:04;;;;;;;6.88;1.58;;;;;;;21.16;58.80;100934.47;5083429;28;20036;-66
2023/08/26 03:10:31;;;;;;;7.13;1.80;;;;;;;22.14;56.14;100922.06;5071225;28;20024;-65
2023/08/26 03:12:57;;;;;;;4.90;1.55;;;;;;;21.24;57.55;100930.56;5089735;28;20032;-66
2023/08/26 03:15:25;;;;;;;5.00;1.58;;;;;;;21.95;56.92;100921.41;5072236;28;20108;-66
2023/08/26 03:17:51;;;;;;;6.25;1.45;;;;;;;21.40;57.67;100931.44;5071546;28;20032;-65
2023/08/26 03:20:16;;;;;;;7.68;1.73;;;;;;;21.00;58.92;100934.41;5069556;28;20032;-66
2023/08/26 03:22:42;;;;;;;6.65;2.00;;;;;;;21.19;58.73;100933.47;5070566;28;20107;-66
2023/08/26 03:25:07;;;;;;;8.07;1.45;;;;;;;21.10;58.22;100936.59;5069935;28;20040;-66
2023/08/26 03:27:33;;;;;;;3.10;1.90;;;;;;;21.04;58.84;100932.47;5090300;28;20034;-65
2023/08/26 03:29:58;;;;;;;5.70;1.73;;;;;;;21.98;56.67;100931.88;5088694;28;20031;-65
2023/08/26 03:32:25;;;;;;;7.00;1.70;;;;;;;21.59;57.65;100933.16;5088700;28;20146;-65
2023/08/26 03:34:50;;;;;;;5.43;2.20;;;;;;;21.74;55.93;100934.97;5074016;28;20090;-65
2023/08/26 03:37:16;;;;;;;2.33;1.70;;;;;;;21.47;58.20;100938.19;5069716;28;20032;-65
2023/08/26 03:39:41;;;;;;;5.65;2.00;;;;;;;22.00;56.29;100932.66;5069413;28;20036;-65
2023/08/26 03:42:07;;;;;;;3.95;1.60;;;;;;;22.48;53.97;100920.16;5069849;28;20024;-65
2023/08/26 03:44:32;;;;;;;3.90;1.67;;;;;;;22.79;53.38;100934.31;5069805;28;20539;-65
2023/08/26 03:46:58;;;;;;;5.38;1.60;;;;;;;21.62;57.03;100940.97;5084401;28;20032;-65
2023/08/26 03:49:23;;;;;;;4.35;1.80;;;;;;;20.70;59.64;100947.50;5078802;28;20024;-66
2023/08/26 03:51:49;;;;;;;3.08;1.70;;;;;;;21.80;56.06;100945.28;5071302;28;20032;-66
2023/08/26 03:54:14;;;;;;;6.20;1.70;;;;;;;21.34;57.45;100947.75;5081461;28;20043;-65
2023/08/26 03:56:39;;;;;;;5.60;2.20;;;;;;;21.71;56.03;100951.09;5089741;28;20122;-65
2023/08/26 03:59:05;;;;;;;4.50;1.73;;;;;;;21.46;58.15;100952.41;5080449;28;20086;-65
2023/08/26 04:01:31;;;;;;;4.90;1.98;;;;;;;21.55;57.89;100960.84;5070398;28;20029;-65
2023/08/26 04:03:57;;;;;;;4.15;2.05;;;;;;;22.05;55.07;100943.91;5078170;28;20399;-65
2023/08/26 04:06:22;;;;;;;3.08;1.48;;;;;;;22.06;55.37;100945.59;5087825;28;20032;-65
2023/08/26 04:08:48;;;;;;;4.18;1.85;;;;;;;21.66;55.73;100948.66;5083539;28;20025;-65
2023/08/26 04:11:15;;;;;;;3.45;1.55;;;;;;;22.10;55.26;100947.13;5086692;28;20036;-65
2023/08/26 04:13:40;;;;;;;7.15;1.75;;;;;;;21.43;58.20;100957.91;5084680;28;20032;-65
2023/08/26 04:16:06;;;;;;;3.03;1.77;;;;;;;21.46;57.29;100951.53;5069583;28;20504;-66
2023/08/26 04:18:31;;;;;;;5.13;1.70;;;;;;;21.64;56.06;100955.03;5070239;28;20066;-66
2023/08/26 04:20:57;;;;;;;4.53;1.75;;;;;;;21.29;56.48;100952.44;5068791;28;20066;-66
2023/08/26 04:23:23;;;;;;;3.50;1.38;;;;;;;21.28;57.75;100954.25;5070354;28;20024;-66
2023/08/26 04:25:50;;;;;;;5.95;1.75;;;;;;;21.50;56.85;100953.94;5089397;28;20384;-66
2023/08/26 04:28:15;;;;;;;5.32;1.60;;;;;;;21.41;57.59;100954.44;5087357;28;20024;-66
2023/08/26 04:30:41;;;;;;;2.00;1.77;;;;;;;20.53;59.98;100955.44;5087782;28;20035;-65
2023/08/26 04:33:06;;;;;;;7.10;1.98;;;;;;;20.72;59.66;100964.22;5089502;28;20024;-65
2023/08/26 04:35:35;;;;;;;8.68;2.30;;;;;;;21.69;55.74;100968.94;5085528;28;20438;-66
2023/08/26 04:38:00;;;;;;;3.00;1.92;;;;;;;20.92;58.61;100970.31;5089505;28;20024;-65
2023/08/26 04:40:26;;;;;;;3.42;1.73;;;;;;;21.51;57.08;100971.63;5069347;28;20028;-65
2023/08/26 04:42:53;;;;;;;7.82;1.92;;;;;;;21.55;56.48;100974.16;5072814;28;20095;-66
2023/08/26 04:45:19;;;;;;;7.78;2.00;;;;;;;21.24;57.75;100965.09;5087898;28;20020;-66
2023/08/26 04:47:46;;;;;;;4.93;1.88;;;;;;;21.44;57.74;100967.56;5089166;28;20027;-66
2023/08/26 04:50:12;;;;;;;3.33;1.85;;;;;;;22.51;54.47;100967.91;5071522;28;20481;-66
2023/08/26 04:52:39;;;;;;;5.22;1.85;;;;;;;21.42;56.80;100968.59;5085422;28;20036;-66
2023/08/26 04:55:09;;;;;;;5.18;1.58;;;;;;;22.07;55.57;100984.59;5069586;28;20131;-66
2023/08/26 04:57:34;;;;;;;6.85;2.83;;;;;;;21.56;56.36;100983.84;5087341;28;20040;-66
2023/08/26 05:00:00;;;;;;;8.00;2.63;;;;;;;20.95;58.43;100988.75;5088033;28;20412;-66
2023/08/26 05:02:26;;;;;;;6.35;1.95;;;;;;;21.58;57.28;100990.78;5086339;28;20034;-66
2023/08/26 05:04:53;;;;;;;5.20;2.38;;;;;;;22.06;55.40;100977.53;5088771;28;20024;-65
2023/08/26 05:07:18;;;;;;;5.13;2.25;;;;;;;21.54;57.10;100994.53;5086133;28;20028;-66
2023/08/26 05:09:44;;;;;;;8.00;1.90;;;;;;;21.81;56.07;100989.53;5086206;28;20419;-66
2023/08/26 05:12:09;;;;;;;5.10;1.60;;;;;;;21.11;58.82;100994.97;5088863;28;20470;-65
2023/08/26 05:14:35;;;;;;;3.55;1.70;;;;;;;21.70;55.96;100997.25;5088255;28;20028;-66
2023/08/26 05:17:00;;;;;;;3.00;1.35;;;;;;;21.45;56.77;100989.72;5079728;28;20456;-66
2023/08/26 05:19:25;;;;;;;4.25;1.75;;;;;;;21.24;57.91;100986.38;5075386;28;20462;-65
2023/08/26 05:21:51;;;;;;;2.92;1.50;;;;;;;21.14;58.79;100989.53;5078466;28;20069;-65
2023/08/26 05:24:16;;;;;;;5.10;1.80;;;;;;;21.38;58.57;100986.50;5082483;28;20563;-65
2023/08/26 05:26:43;;;;;;;9.30;1.70;;;;;;;21.22;60.03;100982.94;5076211;28;20505;-65
2023/08/26 05:29:09;;;;;;;2.45;1.40;;;;;;;21.58;57.33;100982.81;5068783;28;20369;-65
2023/08/26 05:31:34;;;;;;;6.55;1.58;;;;;;;22.24;55.07;100991.59;5086961;28;20031;-66
2023/08/26 05:34:00;;;;;;;4.78;1.60;;;;;;;21.02;58.40;100996.31;5082524;28;20066;-65
2023/08/26 05:36:25;;;;;;;2.47;1.35;;;;;;;21.29;58.97;100992.31;5088116;28;20042;-65
2023/08/26 05:38:51;;;;;;;4.13;1.55;;;;;;;21.50;56.73;100991.19;5087673;28;20043;-66
2023/08/26 05:41:16;;;;;;;5.80;1.40;;;;;;;21.87;55.98;100993.66;5073022;28;20032;-66
2023/08/26 05:43:42;;;;;;;3.35;1.67;;;;;;;22.04;56.39;100992.75;5076929;28;20150;-65
2023/08/26 05:46:07;;;;;;;3.60;1.63;;;;;;;21.85;56.41;100988.44;5088966;28;20032;-65
2023/08/26 05:48:33;;;;;;;4.70;1.60;;;;;;;21.28;59.31;100987.94;5085644;28;20112;-65
2023/08/26 05:50:59;;;;;;;5.35;1.90;;;;;;;22.71;54.48;100981.88;5087957;28;20084;-65
2023/08/26 05:53:27;;;;;;;4.80;1.58;;;;;;;21.66;57.11;100985.06;5086706;28;20054;-65
2023/08/26 05:55:53;;;;;;;2.05;1.15;;;;;;;23.10;53.32;100980.44;5091469;28;20107;-66
2023/08/26 05:58:18;;;;;;;8.50;1.58;;;;;;;23.43;51.61;100966.03;5086505;28;20110;-66
2023/08/26 06:00:43;;;;;;;6.13;1.50;;;;;;;21.56;56.92;100976.72;5052620;28;20050;-66
2023/08/26 06:03:09;;;;;;;5.35;1.80;;;;;;;22.24;55.22;100967.66;5050999;28;20032;-65
2023/08/26 06:05:35;;;;;;;7.90;2.95;;;;;;;22.41;55.18;100966.72;5053988;28;20111;-66
2023/08/26 06:08:00;;;;;;;6.40;1.77;;;;;;;22.73;54.94;100968.47;5055404;28;20067;-66
2023/08/26 06:10:25;;;;;;;2.53;1.63;;;;;;;22.70;54.06;100964.19;5053647;28;20043;-66
2023/08/26 06:12:51;;;;;;;3.15;1.65;;;;;;;22.28;55.21;100968.34;5070154;28;20028;-65
2023/08/26 06:15:17;;;;;;;4.50;1.92;;;;;;;22.05;56.55;100965.19;5045235;28;20419;-66
2023/08/26 06:17:42;;;;;;;5.05;2.00;;;;;;;22.63;54.17;100953.03;5043824;28;20511;-67
2023/08/26 06:20:08;;;;;;;6.38;1.92;;;;;;;23.25;52.91;100946.69;5025051;28;20421;-66
2023/08/26 06:22:34;;;;;;;3.53;1.58;;;;;;;22.64;54.90;100941.41;5060024;28;20036;-66
2023/08/26 06:25:00;;;;;;;3.88;1.73;;;;;;;22.83;54.45;100957.19;5061395;28;20032;-67
2023/08/26 06:27:27;;;;;;;5.30;1.42;;;;;;;22.53;55.64;100960.69;5043660;28;20578;-66
2023/08/26 06:29:58;;;;;;;4.28;1.50;;;;;;;23.41;52.61;100967.94;5044938;28;20074;-67
2023/08/26 06:32:24;;;;;;;6.95;1.60;;;;;;;23.11;53.90;100982.16;5050087;28;20039;-67
2023/08/26 06:34:50;;;;;;;3.72;1.45;;;;;;;23.53;52.63;100988.50;5054433;28;20029;-67
2023/08/26 06:37:15;;;;;;;2.30;1.30;;;;;;;23.62;52.07;100986.22;5053919;28;20070;-66
2023/08/26 06:39:41;;;;;;;2.78;1.65;;;;;;;24.11;51.09;100993.81;5051980;28;20078;-67
2023/08/26 06:42:06;;;;;;;4.25;1.30;;;;;;;23.54;51.88;100995.53;5053888;28;20029;-66
2023/08/26 06:44:32;;;;;;;6.03;1.40;;;;;;;22.50;54.46;101007.94;5060432;28;20465;-66
2023/08/26 06:46:59;;;;;;;4.25;1.58;;;;;;;23.37;53.86;101009.09;5052555;28;20043;-66
2023/08/26 06:49:24;;;;;;;2.80;1.17;;;;;;;23.99;51.89;101027.47;5046726;28;20067;-66
2023/08/26 06:51:49;;;;;;;2.50;1.70;;;;;;;23.79;52.83;101015.34;5053244;28;20047;-66
2023/08/26 06:54:15;;;;;;;2.50;1.42;;;;;;;23.66;50.57;101007.28;5054030;28;20034;-66
2023/08/26 06:56:40;;;;;;;2.17;1.00;;;;;;;23.28;51.70;101009.63;5063078;28;20472;-66
2023/08/26 06:59:05;;;;;;;1.13;0.88;;;;;;;22.78;52.91;101012.53;5064259;28;20467;-66
2023/08/26 07:01:33;;;;;;;1.17;0.95;;;;;;;21.99;56.14;101016.09;5087866;28;20032;-66
2023/08/26 07:04:07;;;;;;;2.30;1.35;;;;;;;22.68;54.96;101016.66;5077919;28;20028;-67
2023/08/26 07:06:33;;;;;;;2.53;1.05;;;;;;;22.75;53.86;101023.38;5083423;28;20038;-66
2023/08/26 07:08:59;;;;;;;6.88;1.80;;;;;;;22.64;54.09;101012.47;5083900;28;20036;-66
2023/08/26 07:11:24;;;;;;;3.08;1.10;;;;;;;24.21;49.63;101016.28;5087590;28;20046;-67
2023/08/26 07:13:50;;;;;;;3.50;1.20;;;;;;;22.93;53.43;101017.91;5090616;28;20036;-66
2023/08/26 07:16:15;;;;;;;5.55;1.40;;;;;;;22.88;52.53;101016.34;5091335;28;20520;-66
2023/08/26 07:18:41;;;;;;;2.47;1.45;;;;;;;22.86;53.11;101012.06;5080161;28;20034;-66
2023/08/26 07:21:06;;;;;;;2.00;0.90;;;;;;;24.06;50.21;101014.59;5090309;28;20042;-66
2023/08/26 07:23:32;;;;;;;5.18;1.23;;;;;;;23.67;50.59;101010.78;5072441;28;20030;-66
2023/08/26 07:25:57;;;;;;;1.17;0.82;;;;;;;23.92;50.08;101014.59;5071571;28;20085;-66
2023/08/26 07:28:23;;;;;;;2.08;1.05;;;;;;;24.27;49.17;101014.16;5077625;28;20052;-66
2023/08/26 07:30:49;;;;;;;3.63;1.30;;;;;;;25.16;46.89;101013.59;5080788;28;20036;-66
2023/08/26 07:33:14;;;;;;;2.63;1.00;;;;;;;25.22;46.48;101015.84;5089649;28;20047;-66
2023/08/26 07:35:40;;;;;;;0.95;0.70;;;;;;;25.71;44.79;101018.75;5092007;28;20019;-66
2023/08/26 07:38:05;;;;;;;2.38;0.98;;;;;;;27.68;40.57;101013.88;5087507;28;20496;-65
2023/08/26 07:40:30;;;;;;;6.22;0.80;;;;;;;28.42;38.09;101017.81;5073746;28;20036;-65
2023/08/26 07:42:56;;;;;;;1.38;0.60;;;;;;;28.99;36.99;101010.41;5080430;28;20031;-67
2023/08/26 07:45:21;;;;;;;2.97;0.80;;;;;;;27.15;40.00;101016.25;5083965;28;20028;-67
2023/08/26 07:47:47;;;;;;;3.60;1.25;;;;;;;28.43;37.99;101015.00;5089978;28;20034;-66
2023/08/26 07:50:13;;;;;;;1.35;1.08;;;;;;;26.25;42.45;101022.94;5077406;28;20025;-66
2023/08/26 07:52:38;;;;;;;4.15;0.70;;;;;;;28.08;38.62;101021.47;5071074;28;20030;-66
2023/08/26 07:55:05;;;;;;;2.65;0.68;;;;;;;29.31;36.90;101012.19;5077108;28;20043;-67
2023/08/26 07:57:30;;;;;;;3.03;0.65;;;;;;;28.03;38.52;101015.59;5085770;28;20262;-66
2023/08/26 07:59:56;;;;;;;2.70;0.82;;;;;;;28.21;37.69;101013.25;5069499;28;20052;-66
2023/08/26 08:02:21;;;;;;;1.83;0.65;;;;;;;30.43;35.13;101013.97;5070790;28;20047;-66
2023/08/26 08:04:47;;;;;;;1.55;0.88;;;;;;;30.90;33.51;101008.72;5080527;28;20451;-66
2023/08/26 08:07:12;;;;;;;2.55;0.68;;;;;;;31.47;32.44;101005.19;5068486;28;20039;-67
2023/08/26 08:09:39;;;;;;;1.40;0.63;;;;;;;30.39;33.96;101017.94;5071096;28;20028;-66
2023/08/26 08:12:04;;;;;;;0.80;0.80;;;;;;;29.43;36.12;101023.72;5073914;28;20040;-66
2023/08/26 08:14:30;;;;;;;1.20;0.88;;;;;;;28.20;36.22;101033.03;5085567;28;20405;-66
2023/08/26 08:16:55;;;;;;;0.50;0.40;;;;;;;29.86;32.92;101029.88;5070985;28;20443;-66
2023/08/26 08:19:21;;;;;;;2.85;0.88;;;;;;;29.56;33.89;101023.50;5067367;28;20119;-66
2023/08/26 08:21:48;;;;;;;1.35;0.68;;;;;;;27.32;37.54;101034.56;5078722;28;20058;-66
2023/08/26 08:24:13;;;;;;;1.38;0.80;;;;;;;26.79;39.10;101037.75;5089164;28;20472;-66
2023/08/26 08:26:43;;;;;;;3.90;1.00;;;;;;;26.54;39.70;101034.19;5084657;28;20031;-66
2023/08/26 08:29:09;;;;;;;1.45;0.95;;;;;;;25.10;42.37;101040.78;5079809;28;20030;-65
2023/08/26 08:31:35;;;;;;;1.90;0.95;;;;;;;25.85;40.96;101037.34;5088984;28;20035;-66
2023/08/26 08:34:00;;;;;;;0.98;0.68;;;;;;;27.85;39.08;101031.34;5068630;28;20028;-66
2023/08/26 08:36:25;;;;;;;2.35;0.70;;;;;;;27.19;38.96;101034.69;5073357;28;20028;-65
2023/08/26 08:38:51;;;;;;;1.83;0.88;;;;;;;26.67;40.37;101046.69;5077268;28;20105;-66
2023/08/26 08:41:18;;;;;;;2.08;1.17;;;;;;;25.28;41.54;101043.13;5087839;28;20074;-66
2023/08/26 08:43:45;;;;;;;1.23;0.80;;;;;;;25.75;41.15;101049.69;5088549;28;20502;-66
2023/08/26 08:46:13;;;;;;;3.05;0.80;;;;;;;25.48;41.14;101049.81;5079256;28;20109;-65
2023/08/26 08:48:40;;;;;;;0.60;0.60;;;;;;;25.90;40.68;101045.06;5096698;28;20023;-66
2023/08/26 08:51:08;;;;;;;2.13;0.70;;;;;;;26.03;40.52;101055.78;5075855;28;20032;-66
2023/08/26 08:53:44;;;;;;;1.58;0.50;;;;;;;27.05;39.39;101053.66;5068433;28;20495;-66
2023/08/26 08:56:13;;;;;;;1.38;0.98;;;;;;;26.31;41.07;101051.09;5087435;28;20097;-66
2023/08/26 08:58:40;;;;;;;1.65;0.90;;;;;;;27.99;39.60;101042.81;5075160;28;20051;-66
2023/08/26 09:01:06;;;;;;;2.67;0.70;;;;;;;27.79;38.98;101053.31;5090280;28;20027;-66
2023/08/26 09:03:32;;;;;;;0.82;0.55;;;;;;;27.08;39.31;101048.91;5087600;28;20364;-65
2023/08/26 09:05:57;;;;;;;0.68;0.50;;;;;;;26.58;41.07;101051.75;5086873;28;20046;-66
2023/08/26 09:08:25;;;;;;;1.25;0.80;;;;;;;26.96;39.94;101049.84;5087342;28;20483;-67
2023/08/26 09:10:51;;;;;;;3.00;0.93;;;;;;;28.44;39.03;101054.34;5068942;28;20413;-66
2023/08/26 09:13:17;;;;;;;1.13;0.98;;;;;;;26.85;41.07;101053.34;5068060;28;20137;-66
2023/08/26 09:15:42;;;;;;;1.45;0.90;;;;;;;27.06;40.87;101050.00;5077904;28;20161;-66
2023/08/26 09:18:15;;;;;;;1.17;0.70;;;;;;;26.57;41.06;101054.53;5090119;28;20054;-66
2023/08/26 09:20:40;;;;;;;;;;;;;;;26.85;40.69;101064.06;5083835;28;20028;-66
2023/08/26 09:23:07;;;;;;;1.83;1.10;;;;;;;26.56;40.95;101064.41;5072487;28;19916;-66
2023/08/26 09:25:34;;;;;;;3.95;0.98;;;;;;;27.95;38.90;101062.84;5086560;28;20077;-65
2023/08/26 09:28:00;;;;;;;1.85;0.90;;;;;;;27.32;40.25;101061.41;5089966;28;20042;-65
2023/08/26 09:30:25;;;;;;;2.33;1.20;;;;;;;26.12;42.33;101071.19;5073718;28;20497;-66
2023/08/26 09:32:53;;;;;;;2.53;1.20;;;;;;;25.24;44.18;101069.25;5068678;28;20056;-66
2023/08/26 09:35:19;;;;;;;1.15;1.10;;;;;;;25.29;44.14;101068.91;5070919;28;20559;-65
2023/08/26 09:37:47;;;;;;;2.50;1.33;;;;;;;25.23;44.16;101071.03;5086888;28;20067;-66
2023/08/26 09:40:14;;;;;;;1.50;1.00;;;;;;;27.15;41.43;101065.41;5087895;28;20028;-66
2023/08/26 09:42:41;;;;;;;1.70;0.98;;;;;;;26.92;40.87;101070.69;5088380;28;20052;-66
2023/08/26 09:45:08;;;;;;;1.92;1.20;;;;;;;28.09;38.06;101059.91;5087581;28;20339;-69
2023/08/26 09:47:36;;;;;;;1.52;1.10;;;;;;;27.98;39.26;101065.28;5067599;28;20392;-66
2023/08/26 09:50:02;;;;;;;3.63;1.33;;;;;;;25.96;41.62;101065.19;5074433;28;20024;-66
2023/08/26 09:52:27;;;;;;;2.70;0.90;;;;;;;26.19;41.38;101067.09;5081585;28;20047;-66
2023/08/26 09:54:55;;;;;;;3.15;1.00;;;;;;;26.65;41.08;101062.00;5088272;28;20031;-65
2023/08/26 09:57:20;;;;;;;0.95;0.95;;;;;;;26.77;41.38;101061.13;5088058;28;20050;-66
2023/08/26 09:59:46;;;;;;;1.25;1.15;;;;;;;25.06;46.01;101066.00;5087193;28;20419;-66
2023/08/26 10:02:23;;;;;;;1.92;1.08;;;;;;;26.06;43.20;101071.63;5086154;28;20027;-66
2023/08/26 10:04:54;;;;;;;1.20;0.98;;;;;;;26.55;42.79;101073.41;5086191;28;20491;-66
2023/08/26 10:07:22;;;;;;;4.10;1.90;;;;;;;27.66;41.13;101068.72;5084233;28;20028;-66
2023/08/26 10:10:07;;;;;;;1.60;1.23;;;;;;;26.52;42.67;101073.63;5088165;28;20080;-66
2023/08/26 10:12:41;;;;;;;1.38;1.00;;;;;;;26.82;41.05;101061.63;5067925;28;20059;-65
2023/08/26 10:15:14;;;;;;;1.10;1.00;;;;;;;25.78;42.56;101073.56;5068917;28;20035;-66
2023/08/26 10:17:42;;;;;;;2.65;1.25;;;;;;;26.12;42.03;101065.84;5067945;28;20370;-66
2023/08/26 10:20:09;;;;;;;1.23;1.13;;;;;;;26.68;41.17;101057.28;5066685;28;20024;-66
2023/08/26 10:22:36;;;;;;;1.20;1.10;;;;;;;26.66;43.29;101061.88;5087008;28;20070;-65
2023/08/26 10:25:03;;;;;;;2.30;0.98;;;;;;;27.22;40.36;101060.44;5077992;28;20497;-66
2023/08/26 10:27:28;;;;;;;4.95;1.17;;;;;;;27.61;39.60;101054.78;5079987;28;20032;-66
2023/08/26 10:29:55;;;;;;;1.92;1.38;;;;;;;27.95;39.14;101052.09;5087184;28;20484;-66
2023/08/26 10:32:22;;;;;;;2.70;1.65;;;;;;;26.72;41.36;101049.88;5079597;28;20056;-66
2023/08/26 10:34:55;;;;;;;4.10;1.33;;;;;;;25.88;42.79;101053.22;5084578;28;20024;-66
2023/08/26 10:37:28;;;;;;;1.45;1.30;;;;;;;25.95;42.53;101063.47;5078323;28;20434;-65
2023/08/26 10:39:54;;;;;;;2.50;1.15;;;;;;;27.77;40.32;101049.91;5069515;28;20035;-65
2023/08/26 10:42:21;;;;;;;3.55;1.50;;;;;;;27.33;40.79;101051.56;5077116;28;20032;-66
2023/08/26 10:44:53;;;;;;;1.50;1.20;;;;;;;27.50;40.52;101048.41;5086326;28;20024;-66
2023/08/26 10:47:31;;;;;;;;;;;;;;;27.83;40.67;101049.41;5072195;28;20032;-67
2023/08/26 10:50:12;;;;;;;2.35;1.23;;;;;;;26.97;40.34;101050.69;5079401;28;19923;-66
2023/08/26 10:52:37;;;;;;;1.83;1.10;;;;;;;26.59;41.26;101049.91;5077668;28;20031;-66
2023/08/26 10:55:13;;;;;;;1.45;1.17;;;;;;;26.84;40.55;101046.28;5075927;28;20441;-68
2023/08/26 10:57:59;;;;;;;2.08;0.90;;;;;;;27.22;40.38;101045.16;5075299;28;20154;-66
2023/08/26 11:00:25;;;;;;;0.90;0.90;;;;;;;26.61;42.19;101044.44;5051752;28;20045;-66
2023/08/26 11:02:51;;;;;;;3.75;0.98;;;;;;;27.63;39.86;101039.41;5052531;28;20029;-67
2023/08/26 11:05:17;;;;;;;4.88;0.77;;;;;;;27.78;38.97;101035.50;5053995;28;20020;-66
2023/08/26 11:07:43;;;;;;;0.60;0.60;;;;;;;26.48;40.53;101039.16;5046575;28;20036;-67
2023/08/26 11:10:27;;;;;;;2.17;0.80;;;;;;;28.27;37.33;101036.06;5043818;28;20078;-66
2023/08/26 11:12:52;;;;;;;0.98;0.63;;;;;;;27.64;37.97;101043.78;5069211;28;20037;-66
2023/08/26 11:15:18;;;;;;;2.75;0.80;;;;;;;27.24;38.07;101032.50;5053101;28;20035;-68
2023/08/26 11:17:43;;;;;;;2.28;0.60;;;;;;;27.15;38.86;101038.56;5070931;28;20027;-66
2023/08/26 11:20:09;;;;;;;0.65;0.65;;;;;;;27.60;38.21;101043.16;5035031;28;20441;-67
2023/08/26 11:22:35;;;;;;;1.52;0.73;;;;;;;28.69;37.11;101027.31;5059090;28;20473;-67
2023/08/26 11:25:00;;;;;;;1.25;0.70;;;;;;;29.05;36.62;101041.31;5042806;28;20021;-66